createdAt,value
2022-08-28T11:51:38.483Z,48.59
2022-08-28T11:52:41.302Z,46.5
2022-08-28T11:53:44.115Z,46.17
2022-08-28T11:54:46.943Z,48.39
2022-08-28T11:55:49.755Z,47.45
2022-08-28T11:56:52.597Z,45.81
2022-08-28T11:57:55.417Z,47
2022-08-28T11:58:58.233Z,45.43
2022-08-28T12:00:01.077Z,45.22
2022-08-28T12:01:03.881Z,45.57
2022-08-28T12:02:06.931Z,45.78
2022-08-28T12:03:10.206Z,47.17
2022-08-28T12:04:13.196Z,46.92
2022-08-28T12:05:16.401Z,47.62
2022-08-28T12:06:19.238Z,47.02
2022-08-28T12:07:22.165Z,46.68
2022-08-28T12:08:25.040Z,45.97
2022-08-28T12:09:27.847Z,48.38
2022-08-28T12:10:30.667Z,45.01
2022-08-28T12:11:33.582Z,44.68
2022-08-28T12:12:36.676Z,45.24
2022-08-28T12:13:39.579Z,45.76
2022-08-28T12:14:42.358Z,46.62
2022-08-28T12:15:45.292Z,46.15
2022-08-28T12:16:48.172Z,45.85
2022-08-28T12:17:51.144Z,47.57
2022-08-28T12:18:54.024Z,46.3
2022-08-28T12:19:56.880Z,46.35
2022-08-28T12:20:59.763Z,47.15
2022-08-28T12:22:02.628Z,46.36
2022-08-28T12:23:05.725Z,45.58
2022-08-28T12:24:14.981Z,46.43
2022-08-28T12:25:17.403Z,46.98
2022-08-28T12:26:13.410Z,46.49
2022-08-28T12:27:19.310Z,46.53
2022-08-28T12:28:19.200Z,47.09
2022-08-28T12:29:27.478Z,46.28
2022-08-28T12:30:23.645Z,46.07
2022-08-28T12:31:26.660Z,46.27
2022-08-28T12:32:29.480Z,46.81
2022-08-28T12:33:32.361Z,47.03
2022-08-28T12:34:35.171Z,47.09
2022-08-28T12:35:38.001Z,47.5
2022-08-28T12:36:40.886Z,47.69
2022-08-28T12:37:53.383Z,47.81
2022-08-28T12:38:46.215Z,48.12
2022-08-28T12:39:49.010Z,48.63
2022-08-28T12:40:51.840Z,48.96
2022-08-28T12:41:54.647Z,49.37
2022-08-28T12:42:57.452Z,49.3
2022-08-28T12:44:00.253Z,48.36
2022-08-28T12:45:03.052Z,47.71
2022-08-28T12:46:19.430Z,48.29
2022-08-28T12:47:06.032Z,47.89
2022-08-28T12:48:08.831Z,48.68
2022-08-28T12:49:11.654Z,47.78
2022-08-28T12:50:14.540Z,48.11
2022-08-28T12:51:17.392Z,47.34
2022-08-28T12:52:20.201Z,48.09
2022-08-28T12:53:22.971Z,48.2
2022-08-28T12:54:25.824Z,48.29
2022-08-28T12:55:28.685Z,47.95
2022-08-28T12:56:31.456Z,48.14
2022-08-28T12:57:34.284Z,49.24
2022-08-28T12:58:37.061Z,49.03
2022-08-28T12:59:39.877Z,48.61
2022-08-28T13:00:42.718Z,48.76
2022-08-28T13:01:45.655Z,48.12
2022-08-28T13:02:51.107Z,48.35
2022-08-28T13:03:50.601Z,48.01
2022-08-28T13:04:55.673Z,49.22
2022-08-28T13:05:55.007Z,48.91
2022-08-28T13:06:57.856Z,49.45
2022-08-28T13:08:00.674Z,45.69
2022-08-28T13:09:03.504Z,46.39
2022-08-28T13:10:06.310Z,46.47
2022-08-28T13:11:10.959Z,45.64
2022-08-28T13:12:10.224Z,45.72
2022-08-28T13:13:13.247Z,44.84
2022-08-28T13:14:16.110Z,44.46
2022-08-28T13:15:24.633Z,44.61
2022-08-28T13:16:20.876Z,44.71
2022-08-28T13:17:24.066Z,44.5
2022-08-28T13:18:33.162Z,44.83
2022-08-28T13:19:29.250Z,46.26
2022-08-28T13:20:32.390Z,44.24
2022-08-28T13:21:35.517Z,42.57
2022-08-28T13:22:38.337Z,42.58
2022-08-28T13:23:41.220Z,42.85
2022-08-28T13:24:44.014Z,43.03
2022-08-28T13:25:46.830Z,42.34
2022-08-28T13:26:49.806Z,42.2
2022-08-28T13:27:52.811Z,42.04
2022-08-28T13:28:55.781Z,43.16
2022-08-28T13:30:01.374Z,43.39
2022-08-28T13:31:01.252Z,41.34
2022-08-28T13:32:01.118Z,41.5
2022-08-28T13:33:03.976Z,42.4
2022-08-28T13:34:06.820Z,41.46
2022-08-28T13:35:09.659Z,41.14
2022-08-28T13:36:12.487Z,42.27
2022-08-28T13:37:20.687Z,42.83
2022-08-28T13:38:16.654Z,41.54
2022-08-28T13:39:19.449Z,43.07
2022-08-28T13:40:58.262Z,41.71
2022-08-28T13:41:24.626Z,42.49
2022-08-28T13:42:27.679Z,40.13
2022-08-28T13:43:30.452Z,42.3
2022-08-28T13:44:33.253Z,41.12
2022-08-28T13:45:44.143Z,39.78
2022-08-28T13:46:37.049Z,40.31
2022-08-28T13:47:39.976Z,41.82
2022-08-28T13:48:42.834Z,41.16
2022-08-28T13:49:45.759Z,40.95
2022-08-28T13:50:48.849Z,40.48
2022-08-28T13:51:53.034Z,40.68
2022-08-28T13:52:53.507Z,39.74
2022-08-28T13:53:53.338Z,40.36
2022-08-28T13:54:59.624Z,39.88
2022-08-28T13:55:55.633Z,39.79
2022-08-28T13:56:58.583Z,40.21
2022-08-28T13:58:01.710Z,40.42
2022-08-28T13:59:04.635Z,41.34
2022-08-28T14:00:07.737Z,40.06
2022-08-28T14:01:10.866Z,39.87
2022-08-28T14:02:14.078Z,40.68
2022-08-28T14:03:17.113Z,40.17
2022-08-28T14:04:20.397Z,39.03
2022-08-28T14:05:23.242Z,40.24
2022-08-28T14:06:33.478Z,40.44
2022-08-28T14:07:31.836Z,40.17
2022-08-28T14:08:31.411Z,38.74
2022-08-28T14:09:34.303Z,38.03
2022-08-28T14:10:37.141Z,38.23
2022-08-28T14:11:40.171Z,39.14
2022-08-28T14:12:43.291Z,37.91
2022-08-28T14:13:56.090Z,37.15
2022-08-28T14:14:49.130Z,38.61
2022-08-28T14:15:52.350Z,38.74
2022-08-28T14:16:55.497Z,38.43
2022-08-28T14:17:58.642Z,38.92
2022-08-28T14:19:01.524Z,39.11
2022-08-28T14:20:04.319Z,38.59
2022-08-28T14:21:07.107Z,37.52
2022-08-28T14:22:09.894Z,36.58
2022-08-28T14:23:12.937Z,37.25
2022-08-28T14:24:12.829Z,37.75
2022-08-28T14:25:15.621Z,37.32
2022-08-28T14:26:18.411Z,36.32
2022-08-28T14:27:21.189Z,36.77
2022-08-28T14:28:24.030Z,37.69
2022-08-28T14:29:26.848Z,38.16
2022-08-28T14:30:29.647Z,36.55
2022-08-28T14:31:32.528Z,37.19
2022-08-28T14:32:36.908Z,36.9
2022-08-28T14:33:37.224Z,37.32
2022-08-28T14:34:37.103Z,36.67
2022-08-28T14:35:39.884Z,36.82
2022-08-28T14:36:42.719Z,37.74
2022-08-28T14:37:45.495Z,37.38
2022-08-28T14:38:48.299Z,37.94
2022-08-28T14:39:51.084Z,37.05
2022-08-28T14:40:54.990Z,36.73
2022-08-28T14:41:54.296Z,36.05
2022-08-28T14:42:57.125Z,36.67
2022-08-28T14:43:59.905Z,36.4
2022-08-28T14:45:02.698Z,36.09
2022-08-28T14:46:11.719Z,36.04
2022-08-28T14:47:07.790Z,35.66
2022-08-28T14:48:10.619Z,36.1
2022-08-28T14:49:13.384Z,37.12
2022-08-28T14:50:16.173Z,36.28
2022-08-28T14:51:18.959Z,36.37
2022-08-28T14:52:21.723Z,36.86
2022-08-28T14:53:24.485Z,36.83
2022-08-28T14:54:27.284Z,37.19
2022-08-28T14:55:30.095Z,37.9
2022-08-28T14:56:32.915Z,37.74
2022-08-28T14:57:35.667Z,39.05
2022-08-28T14:58:38.472Z,37.97
2022-08-28T14:59:41.262Z,38.95
2022-08-28T15:00:44.134Z,37.54
2022-08-28T15:01:47.010Z,37.44
2022-08-28T15:02:59.798Z,36.85
2022-08-28T15:03:52.753Z,36
2022-08-28T15:04:55.692Z,36.37
2022-08-28T15:05:58.452Z,35.84
2022-08-28T15:07:09.197Z,35.97
2022-08-28T15:08:02.021Z,36.5
2022-08-28T15:09:04.824Z,37.75
2022-08-28T15:10:07.646Z,36.3
2022-08-28T15:11:10.795Z,36.54
2022-08-28T15:12:16.847Z,35.62
2022-08-28T15:13:16.220Z,35.55
2022-08-28T15:14:18.984Z,36.18
2022-08-28T15:15:21.742Z,37.03
2022-08-28T15:16:30.446Z,37.39
2022-08-28T15:17:34.861Z,37.72
2022-08-28T15:18:27.454Z,37.46
2022-08-28T15:19:30.275Z,36.71
2022-08-28T15:20:33.061Z,37.45
2022-08-28T15:21:35.846Z,37.58
2022-08-28T15:22:38.653Z,36.89
2022-08-28T15:23:43.406Z,36.51
2022-08-28T15:24:42.723Z,36.02
2022-08-28T15:25:45.505Z,36.51
2022-08-28T15:26:48.318Z,36.67
2022-08-28T15:27:51.135Z,35.1
2022-08-28T15:28:53.950Z,36.22
2022-08-28T15:29:56.742Z,35.58
2022-08-28T15:30:59.561Z,35.75
2022-08-28T15:32:02.640Z,35.62
2022-08-28T15:33:05.630Z,36.14
2022-08-28T15:34:13.881Z,36.8
2022-08-28T15:35:09.879Z,37.26
2022-08-28T15:36:12.725Z,37.2
2022-08-28T15:37:15.520Z,37.34
2022-08-28T15:38:18.334Z,37.3
2022-08-28T15:39:21.127Z,37.72
2022-08-28T15:40:24.132Z,38.38
2022-08-28T15:41:27.167Z,37.69
2022-08-28T15:42:30.356Z,38.52
2022-08-28T15:43:33.374Z,37.28
2022-08-28T15:44:36.152Z,36.79
2022-08-28T15:45:39.628Z,36.93
2022-08-28T15:46:39.226Z,36.82
2022-08-28T15:47:42.039Z,37.76
2022-08-28T15:48:47.067Z,36.65
2022-08-28T15:49:52.124Z,36.71
2022-08-28T15:50:48.616Z,37.33
2022-08-28T15:51:51.429Z,36.71
2022-08-28T15:52:54.466Z,37.77
2022-08-28T15:53:57.282Z,37.29
2022-08-28T15:55:00.072Z,36.61
2022-08-28T15:56:02.858Z,37.23
2022-08-28T15:57:08.041Z,37.45
2022-08-28T15:58:14.511Z,37.47
2022-08-28T15:59:10.431Z,36.72
2022-08-28T16:00:13.261Z,37.03
2022-08-28T16:01:16.175Z,35.66
2022-08-28T16:02:19.410Z,36.36
2022-08-28T16:03:19.191Z,36.5
2022-08-28T16:04:21.984Z,36.71
2022-08-28T16:05:31.483Z,36.31
2022-08-28T16:06:27.572Z,36.31
2022-08-28T16:07:30.409Z,36.38
2022-08-28T16:08:33.258Z,36.96
2022-08-28T16:09:36.068Z,37.31
2022-08-28T16:10:38.983Z,37.54
2022-08-28T16:11:41.864Z,36.85
2022-08-28T16:12:48.060Z,36.52
2022-08-28T16:13:46.706Z,37.53
2022-08-28T16:14:49.521Z,36.91
2022-08-28T16:15:52.648Z,36.14
2022-08-28T16:16:55.775Z,35.92
2022-08-28T16:17:58.615Z,36.92
2022-08-28T16:19:01.463Z,35.96
2022-08-28T16:20:04.394Z,36.9
2022-08-28T16:21:07.200Z,36.71
2022-08-28T16:22:10.010Z,36.97
2022-08-28T16:23:12.812Z,36.37
2022-08-28T16:24:15.802Z,35.29
2022-08-28T16:25:18.577Z,36.03
2022-08-28T16:26:21.420Z,36
2022-08-28T16:27:24.277Z,36.11
2022-08-28T16:28:27.371Z,35.83
2022-08-28T16:29:30.149Z,35.87
2022-08-28T16:30:33.870Z,35.85
2022-08-28T16:31:33.812Z,36.08
2022-08-28T16:32:36.694Z,35.73
2022-08-28T16:33:40.203Z,35.91
2022-08-28T16:34:40.065Z,36.5
2022-08-28T16:35:56.456Z,35.46
2022-08-28T16:36:45.771Z,35.51
2022-08-28T16:37:48.862Z,35.21
2022-08-28T16:39:03.575Z,35.94
2022-08-28T16:39:53.302Z,35.34
2022-08-28T16:40:56.415Z,35.74
2022-08-28T16:41:59.272Z,36.38
2022-08-28T16:43:02.557Z,35.76
2022-08-28T16:44:05.549Z,34.99
2022-08-28T16:45:08.632Z,35.54
2022-08-28T16:46:11.685Z,35.39
2022-08-28T16:47:14.737Z,35.69
2022-08-28T16:48:17.812Z,35.64
2022-08-28T16:49:20.908Z,35.06
2022-08-28T16:50:23.819Z,35.25
2022-08-28T16:51:26.942Z,35.31
2022-08-28T16:52:29.872Z,35.21
2022-08-28T16:53:32.907Z,35.2
2022-08-28T16:54:34.753Z,34.89
2022-08-28T16:55:37.582Z,35.23
2022-08-28T16:56:40.435Z,35.79
2022-08-28T16:57:43.422Z,36.04
2022-08-28T16:58:46.263Z,36.31
2022-08-28T16:59:55.323Z,35.82
2022-08-28T17:00:58.716Z,36.11
2022-08-28T17:01:54.480Z,36.43
2022-08-28T17:02:51.994Z,36.26
2022-08-28T17:03:53.859Z,35.83
2022-08-28T17:04:56.821Z,36.2
2022-08-28T17:05:59.931Z,35.79
2022-08-28T17:07:02.871Z,36.03
2022-08-28T17:08:07.936Z,36.1
2022-08-28T17:09:08.779Z,36.09
2022-08-28T17:10:14.962Z,36.11
2022-08-28T17:11:14.590Z,36.29
2022-08-28T17:12:17.514Z,35.92
2022-08-28T17:13:20.414Z,35.94
2022-08-28T17:14:23.434Z,35.8
2022-08-28T17:15:26.597Z,36.46
2022-08-28T17:16:30.149Z,36.64
2022-08-28T17:17:30.921Z,36.56
2022-08-28T17:18:30.897Z,36.82
2022-08-28T17:19:34.081Z,36.93
2022-08-28T17:20:36.995Z,37.02
2022-08-28T17:21:39.797Z,37.66
2022-08-28T17:22:42.682Z,36.53
2022-08-28T17:23:45.508Z,36.74
2022-08-28T17:24:52.836Z,36.95
2022-08-28T17:25:48.839Z,37.44
2022-08-28T17:26:51.664Z,37.6
2022-08-28T17:27:54.558Z,37.71
2022-08-28T17:28:57.351Z,37.83
2022-08-28T17:30:00.167Z,37.37
2022-08-28T17:31:03.240Z,37.42
2022-08-28T17:32:06.241Z,37.82
2022-08-28T17:33:09.034Z,37.22
2022-08-28T17:34:11.822Z,37.1
2022-08-28T17:35:14.599Z,37.31
2022-08-28T17:36:34.269Z,37.38
2022-08-28T17:37:19.936Z,37.68
2022-08-28T17:38:22.727Z,38.18
2022-08-28T17:39:25.686Z,38.03
2022-08-28T17:40:28.744Z,38.02
2022-08-28T17:41:33.134Z,37.97
2022-08-28T17:42:33.159Z,38
2022-08-28T17:43:36.071Z,37.63
2022-08-28T17:44:38.939Z,37.74
2022-08-28T17:45:42.084Z,37.72
2022-08-28T17:46:45.071Z,37.74
2022-08-28T17:47:48.167Z,38.02
2022-08-28T17:48:56.402Z,38.29
2022-08-28T17:49:52.384Z,38.64
2022-08-28T17:50:55.172Z,38.57
2022-08-28T17:51:57.958Z,38.78
2022-08-28T17:53:00.756Z,38.92
2022-08-28T17:54:03.556Z,39.23
2022-08-28T17:55:06.389Z,39.51
2022-08-28T17:56:09.184Z,39.8
2022-08-28T17:57:11.978Z,40.11
2022-08-28T17:58:15.493Z,40.31
2022-08-28T17:59:15.047Z,40.35
2022-08-28T18:00:17.853Z,40.36
2022-08-28T18:01:20.767Z,40.42
2022-08-28T18:02:23.658Z,40.47
2022-08-28T18:03:26.495Z,40.43
2022-08-28T18:04:31.073Z,40.8
2022-08-28T18:05:29.600Z,40.73
2022-08-28T18:06:32.490Z,40.81
2022-08-28T18:07:35.355Z,40.93
2022-08-28T18:08:38.162Z,40.44
2022-08-28T18:09:40.950Z,40.72
2022-08-28T18:10:43.728Z,40.56
2022-08-28T18:11:46.497Z,40.56
2022-08-28T18:12:49.309Z,41.03
2022-08-28T18:13:52.074Z,41.15
2022-08-28T18:14:54.871Z,41.28
2022-08-28T18:15:57.897Z,41.12
2022-08-28T18:17:00.828Z,41.29
2022-08-28T18:18:03.668Z,41.26
2022-08-28T18:19:06.445Z,41.4
2022-08-28T18:20:09.324Z,41.71
2022-08-28T18:21:12.109Z,42
2022-08-28T18:22:14.907Z,42.01
2022-08-28T18:23:17.698Z,41.89
2022-08-28T18:24:20.465Z,42.11
2022-08-28T18:25:23.269Z,42.07
2022-08-28T18:26:26.029Z,42.31
2022-08-28T18:27:28.832Z,42.62
2022-08-28T18:28:31.640Z,42.93
2022-08-28T18:29:34.443Z,43.22
2022-08-28T18:30:37.234Z,43.01
2022-08-28T18:31:40.281Z,42.93
2022-08-28T18:32:43.434Z,42.88
2022-08-28T18:33:46.247Z,42.89
2022-08-28T18:34:49.097Z,42.94
2022-08-28T18:35:51.882Z,42.89
2022-08-28T18:36:54.691Z,43.03
2022-08-28T18:37:57.517Z,43.21
2022-08-28T18:39:01.320Z,43.24
2022-08-28T18:40:01.958Z,43.43
2022-08-28T18:41:01.443Z,43.66
2022-08-28T18:42:04.252Z,44.21
2022-08-28T18:43:07.059Z,44.05
2022-08-28T18:44:09.836Z,44.2
2022-08-28T18:45:12.640Z,44.24
2022-08-28T18:46:15.691Z,44.74
2022-08-28T18:47:18.768Z,44.93
2022-08-28T18:48:21.584Z,44.72
2022-08-28T18:49:24.378Z,44.72
2022-08-28T18:50:27.154Z,45.06
2022-08-28T18:51:30.003Z,45.19
2022-08-28T18:52:32.813Z,45.15
2022-08-28T18:53:35.675Z,45.35
2022-08-28T18:54:38.530Z,45.41
2022-08-28T18:55:41.334Z,45.46
2022-08-28T18:56:44.489Z,46
2022-08-28T18:57:47.606Z,46.29
2022-08-28T18:58:50.397Z,46.35
2022-08-28T18:59:53.227Z,46.12
2022-08-28T19:00:56.087Z,45.65
2022-08-28T19:01:59.137Z,45.33
2022-08-28T19:02:59.678Z,45.03
2022-08-28T19:03:59.321Z,45.27
2022-08-28T19:05:02.093Z,45.7
2022-08-28T19:06:04.874Z,46.01
2022-08-28T19:07:07.706Z,45.58
2022-08-28T19:08:10.806Z,45.63
2022-08-28T19:09:21.027Z,45.34
2022-08-28T19:10:34.597Z,45.51
2022-08-28T19:11:17.318Z,45.59
2022-08-28T19:12:20.135Z,45.58
2022-08-28T19:13:22.955Z,45.42
2022-08-28T19:14:25.827Z,45.61
2022-08-28T19:15:28.748Z,45.87
2022-08-28T19:16:31.958Z,45.99
2022-08-28T19:17:36.153Z,46.1
2022-08-28T19:18:35.553Z,46.38
2022-08-28T19:19:38.383Z,46.72
2022-08-28T19:20:41.158Z,46.7
2022-08-28T19:21:43.996Z,46.7
2022-08-28T19:22:46.932Z,46.93
2022-08-28T19:23:56.562Z,47.21
2022-08-28T19:24:52.502Z,47.25
2022-08-28T19:25:55.297Z,47.08
2022-08-28T19:26:58.081Z,47.07
2022-08-28T19:28:00.862Z,47.18
2022-08-28T19:29:06.521Z,47.45
2022-08-28T19:30:05.371Z,47.39
2022-08-28T19:31:08.357Z,47.6
2022-08-28T19:32:11.388Z,47.77
2022-08-28T19:33:14.189Z,47.7
2022-08-28T19:34:16.957Z,48.01
2022-08-28T19:35:19.762Z,48.1
2022-08-28T19:36:22.597Z,48.06
2022-08-28T19:37:25.391Z,48.17
2022-08-28T19:38:31.061Z,48.25
2022-08-28T19:39:30.479Z,48.49
2022-08-28T19:40:36.332Z,48.63
2022-08-28T19:41:34.309Z,48.75
2022-08-28T19:42:37.100Z,48.67
2022-08-28T19:43:50.042Z,48.53
2022-08-28T19:44:42.400Z,48.48
2022-08-28T19:45:45.161Z,48.18
2022-08-28T19:46:48.229Z,48
2022-08-28T19:47:51.132Z,47.91
2022-08-28T19:48:53.930Z,47.99
2022-08-28T19:49:57.449Z,48.05
2022-08-28T19:50:56.781Z,48.01
2022-08-28T19:51:59.542Z,48.12
2022-08-28T19:53:02.307Z,48.18
2022-08-28T19:54:05.107Z,48.26
2022-08-28T19:55:07.908Z,48.52
2022-08-28T19:56:10.691Z,48.78
2022-08-28T19:57:14.997Z,48.89
2022-08-28T19:58:15.300Z,49.14
2022-08-28T19:59:14.988Z,49.2
2022-08-28T20:00:17.853Z,49.39
2022-08-28T20:01:20.956Z,49.61
2022-08-28T20:02:24.329Z,49.8
2022-08-28T20:03:27.405Z,49.82
2022-08-28T20:04:30.228Z,49.82
2022-08-28T20:05:33.030Z,49.93
2022-08-28T20:06:35.817Z,50.2
2022-08-28T20:07:38.656Z,50.08
2022-08-28T20:08:41.486Z,50.21
2022-08-28T20:09:44.281Z,50.25
2022-08-28T20:10:47.458Z,50.24
2022-08-28T20:11:51.510Z,50.21
2022-08-28T20:12:51.437Z,50.38
2022-08-28T20:13:54.302Z,50.29
2022-08-28T20:15:03.584Z,50.78
2022-08-28T20:16:00.035Z,50.86
2022-08-28T20:17:03.364Z,50.63
2022-08-28T20:18:06.198Z,50.69
2022-08-28T20:19:08.982Z,50.96
2022-08-28T20:20:12.419Z,50.46
2022-08-28T20:21:15.328Z,50.29
2022-08-28T20:22:18.250Z,50.39
2022-08-28T20:23:21.237Z,50.09
2022-08-28T20:24:24.133Z,49.89
2022-08-28T20:25:27.116Z,49.9
2022-08-28T20:26:30.010Z,49.93
2022-08-28T20:27:33.077Z,50.31
2022-08-28T20:28:36.038Z,50.31
2022-08-28T20:29:38.875Z,50.63
2022-08-28T20:30:41.832Z,51.06
2022-08-28T20:31:44.660Z,51.24
2022-08-28T20:32:47.736Z,51.27
2022-08-28T20:33:50.840Z,51.26
2022-08-28T20:34:53.615Z,51.18
2022-08-28T20:35:56.402Z,51.34
2022-08-28T20:36:59.167Z,51.37
2022-08-28T20:38:01.951Z,51.29
2022-08-28T20:39:04.727Z,51.83
2022-08-28T20:40:11.228Z,51.93
2022-08-28T20:41:08.625Z,52.25
2022-08-28T20:42:11.423Z,52.23
2022-08-28T20:43:14.302Z,52.38
2022-08-28T20:44:17.170Z,51.94
2022-08-28T20:45:20.108Z,51.7
2022-08-28T20:46:23.369Z,51.9
2022-08-28T20:47:26.458Z,51.8
2022-08-28T20:48:29.257Z,52.28
2022-08-28T20:49:32.047Z,52.58
2022-08-28T20:50:35.350Z,52.43
2022-08-28T20:51:38.241Z,52.06
2022-08-28T20:52:41.045Z,52.33
2022-08-28T20:53:43.843Z,52.33
2022-08-28T20:54:47.864Z,52.45
2022-08-28T20:55:47.264Z,52.36
2022-08-28T20:56:50.136Z,52.39
2022-08-28T20:57:53.002Z,52.69
2022-08-28T20:58:55.797Z,52.58
2022-08-28T21:00:05.868Z,52.85
2022-08-28T21:01:02.128Z,52.9
2022-08-28T21:02:05.321Z,53.32
2022-08-28T21:03:08.272Z,53.19
2022-08-28T21:04:11.625Z,52.91
2022-08-28T21:05:14.567Z,53.07
2022-08-28T21:06:17.783Z,53.22
2022-08-28T21:07:20.594Z,53.08
2022-08-28T21:08:23.382Z,53.21
2022-08-28T21:10:07.672Z,53.23
2022-08-28T21:10:29.369Z,53.1
2022-08-28T21:11:32.176Z,53.13
2022-08-28T21:12:34.973Z,53.1
2022-08-28T21:13:37.782Z,53.36
2022-08-28T21:14:40.568Z,53.27
2022-08-28T21:15:43.355Z,53.54
2022-08-28T21:16:46.206Z,53.34
2022-08-28T21:17:49.209Z,53.33
2022-08-28T21:19:16.177Z,53.19
2022-08-28T21:19:52.677Z,53.19
2022-08-28T21:20:56.854Z,53.02
2022-08-28T21:21:56.461Z,53.02
2022-08-28T21:22:59.235Z,52.7
2022-08-28T21:24:02.047Z,52.64
2022-08-28T21:25:04.824Z,53.08
2022-08-28T21:26:07.615Z,53.08
2022-08-28T21:27:10.411Z,52.83
2022-08-28T21:28:13.241Z,53.11
2022-08-28T21:29:16.080Z,53.09
2022-08-28T21:30:18.878Z,53.11
2022-08-28T21:31:21.847Z,53.46
2022-08-28T21:32:24.941Z,53.09
2022-08-28T21:33:27.734Z,53.51
2022-08-28T21:34:30.509Z,53.58
2022-08-28T21:35:33.302Z,53.85
2022-08-28T21:36:36.074Z,54.37
2022-08-28T21:37:38.853Z,54.29
2022-08-28T21:38:43.983Z,54.34
2022-08-28T21:39:43.343Z,55.25
2022-08-28T21:40:46.357Z,55.35
2022-08-28T21:41:49.483Z,55.67
2022-08-28T21:42:52.251Z,55.87
2022-08-28T21:43:55.033Z,56.37
2022-08-28T21:44:57.863Z,56.66
2022-08-28T21:46:00.964Z,56.46
2022-08-28T21:47:04.040Z,56.9
2022-08-28T21:48:06.893Z,56.44
2022-08-28T21:49:09.978Z,56.36
2022-08-28T21:50:12.776Z,56.5
2022-08-28T21:51:16.423Z,56.4
2022-08-28T21:52:16.885Z,56.2
2022-08-28T21:53:20.114Z,56.59
2022-08-28T21:54:22.888Z,56.45
2022-08-28T21:55:25.696Z,56.52
2022-08-28T21:56:28.479Z,56.46
2022-08-28T21:57:31.245Z,56.35
2022-08-28T21:58:34.026Z,56.31
2022-08-28T21:59:38.498Z,56.21
2022-08-28T22:00:37.794Z,56.02
2022-08-28T22:01:44.102Z,55.75
2022-08-28T22:02:41.469Z,55.61
2022-08-28T22:03:41.414Z,55.18
2022-08-28T22:04:44.231Z,55
2022-08-28T22:05:46.991Z,54.64
2022-08-28T22:06:49.788Z,54.45
2022-08-28T22:07:52.583Z,54.24
2022-08-28T22:08:55.976Z,54.38
2022-08-28T22:09:58.778Z,55.02
2022-08-28T22:11:01.564Z,54.89
2022-08-28T22:12:04.379Z,54.92
2022-08-28T22:13:07.196Z,55.42
2022-08-28T22:14:09.965Z,55.27
2022-08-28T22:15:12.757Z,55.39
2022-08-28T22:16:17.164Z,55.28
2022-08-28T22:17:16.948Z,55.78
2022-08-28T22:18:19.708Z,55.7
2022-08-28T22:19:22.523Z,55.76
2022-08-28T22:20:25.320Z,55.57
2022-08-28T22:21:28.096Z,55.69
2022-08-28T22:22:30.867Z,55.33
2022-08-28T22:23:33.676Z,55.31
2022-08-28T22:24:36.451Z,55.29
2022-08-28T22:25:41.307Z,55.45
2022-08-28T22:26:40.680Z,55.65
2022-08-28T22:27:43.506Z,55.49
2022-08-28T22:28:46.326Z,55.81
2022-08-28T22:29:49.112Z,56.16
2022-08-28T22:30:51.915Z,56.28
2022-08-28T22:31:54.907Z,56.21
2022-08-28T22:32:57.808Z,56.22
2022-08-28T22:34:00.580Z,56.21
2022-08-28T22:35:03.365Z,56.45
2022-08-28T22:36:06.137Z,56.4
2022-08-28T22:37:08.920Z,56.67
2022-08-28T22:38:11.786Z,56.81
2022-08-28T22:39:14.542Z,56.67
2022-08-28T22:40:17.513Z,56.68
2022-08-28T22:41:20.581Z,56.88
2022-08-28T22:42:23.442Z,56.86
2022-08-28T22:43:26.305Z,57.51
2022-08-28T22:44:29.087Z,57.55
2022-08-28T22:45:32.009Z,57.53
2022-08-28T22:46:34.946Z,57.64
2022-08-28T22:47:37.752Z,57.95
2022-08-28T22:48:40.544Z,58.21
2022-08-28T22:49:43.326Z,58.48
2022-08-28T22:50:46.100Z,58.21
2022-08-28T22:51:48.902Z,58.19
2022-08-28T22:52:51.733Z,58.1
2022-08-28T22:53:54.512Z,58.03
2022-08-28T22:54:57.269Z,58.05
2022-08-28T22:56:00.031Z,58.46
2022-08-28T22:57:02.782Z,58.77
2022-08-28T22:58:05.576Z,58.54
2022-08-28T22:59:08.390Z,58.73
2022-08-28T23:00:11.162Z,58.66
2022-08-28T23:01:13.957Z,58.48
2022-08-28T23:02:16.749Z,58.86
2022-08-28T23:03:20.017Z,58.78
2022-08-28T23:04:19.956Z,58.69
2022-08-28T23:05:23.024Z,58.66
2022-08-28T23:06:25.797Z,58.71
2022-08-28T23:07:28.583Z,59.07
2022-08-28T23:08:34.355Z,58.85
2022-08-28T23:09:36.316Z,58.8
2022-08-28T23:10:59.470Z,58.88
2022-08-28T23:11:38.172Z,58.93
2022-08-28T23:12:40.950Z,59.03
2022-08-28T23:13:43.739Z,58.95
2022-08-28T23:14:49.000Z,58.98
2022-08-28T23:15:48.516Z,59.09
2022-08-28T23:16:51.527Z,59
2022-08-28T23:17:54.363Z,59.12
2022-08-28T23:19:13.887Z,59.11
2022-08-28T23:20:00.010Z,59.22
2022-08-28T23:21:02.827Z,59.2
2022-08-28T23:22:05.609Z,59.13
2022-08-28T23:23:08.387Z,59.31
2022-08-28T23:24:11.228Z,59.17
2022-08-28T23:25:14.027Z,59.25
2022-08-28T23:26:16.817Z,59.15
2022-08-28T23:27:36.862Z,59.46
2022-08-28T23:28:22.494Z,59.34
2022-08-28T23:29:25.343Z,59.17
2022-08-28T23:30:28.133Z,59.04
2022-08-28T23:31:31.700Z,59.28
2022-08-28T23:32:34.426Z,59.01
2022-08-28T23:33:35.556Z,58.81
2022-08-28T23:34:36.144Z,58.88
2022-08-28T23:35:37.153Z,58.8
2022-08-28T23:36:43.679Z,58.84
2022-08-28T23:37:51.924Z,58.98
2022-08-28T23:38:45.320Z,58.86
2022-08-28T23:39:45.227Z,58.94
2022-08-28T23:40:48.028Z,59.02
2022-08-28T23:41:49.999Z,58.95
2022-08-28T23:42:52.771Z,59.22
2022-08-28T23:43:57.127Z,59.25
2022-08-28T23:44:56.427Z,59.42
2022-08-28T23:45:59.822Z,59.4
2022-08-28T23:47:00.846Z,59.44
2022-08-28T23:48:01.080Z,59.41
2022-08-28T23:49:04.065Z,59.44
2022-08-28T23:50:05.377Z,59.38
2022-08-28T23:51:06.299Z,59.19
2022-08-28T23:52:08.660Z,58.82
2022-08-28T23:53:09.991Z,58.44
2022-08-28T23:54:09.301Z,58.2
2022-08-28T23:55:12.080Z,57.84
2022-08-28T23:56:20.679Z,57.6
2022-08-28T23:57:16.881Z,57.39
2022-08-28T23:58:22.440Z,57.23
2022-08-28T23:59:22.961Z,56.95
